createdAt,value
2018-04-13T00:01:37.001Z,83.11
2018-04-13T00:04:04.760Z,83.37
2018-04-13T00:06:32.480Z,83.14
2018-04-13T00:09:00.371Z,82.92
2018-04-13T00:11:28.074Z,83.15
2018-04-13T00:13:55.713Z,83.23
2018-04-13T00:16:23.553Z,82.89
2018-04-13T00:18:51.275Z,82.58
2018-04-13T00:21:18.896Z,82.81
2018-04-13T00:23:46.589Z,82.75
2018-04-13T00:26:14.299Z,82.67
2018-04-13T00:28:42.001Z,82.39
2018-04-13T00:31:09.749Z,82.65
2018-04-13T00:33:37.416Z,82.77
2018-04-13T00:36:05.072Z,82.95
2018-04-13T00:38:32.769Z,83.02
2018-04-13T00:41:00.425Z,83.24
2018-04-13T00:43:28.054Z,84.10
2018-04-13T00:45:55.915Z,85.03
2018-04-13T00:48:23.559Z,85.30
2018-04-13T00:50:51.489Z,85.37
2018-04-13T00:53:31.628Z,85.08
2018-04-13T00:55:59.362Z,84.80
2018-04-13T00:58:27.011Z,84.55
2018-04-13T01:00:54.896Z,84.76
2018-04-13T01:03:22.516Z,85.00
2018-04-13T01:05:50.241Z,84.93
2018-04-13T01:08:17.993Z,84.31
2018-04-13T01:10:46.472Z,84.47
2018-04-13T01:13:14.172Z,84.37
2018-04-13T01:15:42.089Z,83.92
2018-04-13T01:18:09.792Z,84.01
2018-04-13T01:20:37.500Z,83.98
2018-04-13T01:23:05.936Z,83.93
2018-04-13T01:25:33.621Z,83.58
2018-04-13T01:28:01.360Z,83.73
2018-04-13T01:30:29.305Z,83.75
2018-04-13T01:32:56.960Z,83.75
2018-04-13T01:35:25.758Z,83.76
2018-04-13T01:37:53.716Z,83.67
2018-04-13T01:40:22.574Z,83.73
2018-04-13T01:42:50.624Z,83.83
2018-04-13T01:45:25.104Z,84.63
2018-04-13T01:47:53.153Z,85.14
2018-04-13T01:50:20.842Z,85.19
2018-04-13T01:52:48.501Z,84.85
2018-04-13T01:55:16.302Z,84.08
2018-04-13T01:57:43.890Z,84.21
2018-04-13T02:00:11.552Z,84.39
2018-04-13T02:02:39.194Z,85.05
2018-04-13T02:05:06.833Z,85.85
2018-04-13T02:07:34.426Z,86.39
2018-04-13T02:10:02.059Z,86.27
2018-04-13T02:12:29.668Z,86.18
2018-04-13T02:14:57.361Z,86.22
2018-04-13T02:17:25.109Z,86.89
2018-04-13T02:19:52.761Z,87.72
2018-04-13T02:22:20.520Z,88.13
2018-04-13T02:24:48.174Z,88.91
2018-04-13T02:27:15.768Z,89.42
2018-04-13T02:29:43.404Z,89.15
2018-04-13T02:32:11.111Z,88.17
2018-04-13T02:34:38.841Z,87.48
2018-04-13T02:37:06.390Z,87.71
2018-04-13T02:39:34.080Z,88.29
2018-04-13T02:42:01.700Z,88.29
2018-04-13T02:44:29.308Z,87.88
2018-04-13T02:46:57.017Z,87.64
2018-04-13T02:49:24.686Z,87.35
2018-04-13T02:51:52.559Z,87.08
2018-04-13T02:54:20.163Z,86.38
2018-04-13T02:56:47.795Z,86.03
2018-04-13T02:59:15.501Z,85.64
2018-04-13T03:01:43.135Z,85.28
2018-04-13T03:04:10.785Z,85.23
2018-04-13T03:06:38.441Z,85.64
2018-04-13T03:09:06.038Z,85.77
2018-04-13T03:11:33.698Z,85.71
2018-04-13T03:14:01.312Z,85.21
2018-04-13T03:16:29.089Z,85.34
2018-04-13T03:18:56.764Z,85.93
2018-04-13T03:21:24.360Z,86.17
2018-04-13T03:23:52.025Z,85.76
2018-04-13T03:26:19.645Z,84.80
2018-04-13T03:28:47.300Z,84.80
2018-04-13T03:31:14.905Z,85.04
2018-04-13T03:33:42.567Z,85.18
2018-04-13T03:36:10.160Z,85.02
2018-04-13T03:38:37.805Z,84.82
2018-04-13T03:41:05.409Z,85.27
2018-04-13T03:43:33.033Z,86.13
2018-04-13T03:46:00.673Z,86.33
2018-04-13T03:48:28.342Z,86.43
2018-04-13T03:50:55.940Z,85.93
2018-04-13T03:53:23.574Z,85.82
2018-04-13T03:55:51.187Z,85.64
2018-04-13T03:58:18.819Z,85.38
2018-04-13T04:00:46.416Z,85.75
2018-04-13T04:03:14.072Z,85.84
2018-04-13T04:05:41.721Z,85.57
2018-04-13T04:08:09.413Z,87.61
2018-04-13T04:10:37.369Z,86.44
2018-04-13T04:13:05.126Z,85.28
2018-04-13T04:15:32.857Z,85.54
2018-04-13T04:18:00.637Z,85.92
2018-04-13T04:20:39.795Z,86.11
2018-04-13T04:23:19.064Z,86.10
2018-04-13T04:28:47.998Z,86.17
2018-04-13T04:31:15.683Z,86.11
2018-04-13T04:33:43.467Z,85.65
2018-04-13T04:36:11.110Z,85.87
2018-04-13T04:38:38.852Z,86.12
2018-04-13T04:41:06.624Z,86.39
2018-04-13T04:43:34.305Z,86.57
2018-04-13T04:46:01.935Z,86.03
2018-04-13T04:48:29.549Z,86.33
2018-04-13T04:50:57.246Z,86.25
2018-04-13T04:53:24.849Z,86.47
2018-04-13T04:55:52.580Z,86.54
2018-04-13T04:58:20.177Z,86.49
2018-04-13T05:00:47.900Z,86.43
2018-04-13T05:03:15.516Z,86.52
2018-04-13T05:05:43.161Z,86.28
2018-04-13T05:08:10.783Z,86.41
2018-04-13T05:10:38.439Z,86.72
2018-04-13T05:13:06.241Z,86.85
2018-04-13T05:15:33.904Z,87.28
2018-04-13T05:18:01.547Z,87.64
2018-04-13T05:20:29.149Z,87.74
2018-04-13T05:22:56.810Z,87.64
2018-04-13T05:25:24.548Z,87.76
2018-04-13T05:27:52.192Z,87.88
2018-04-13T05:30:19.826Z,88.11
2018-04-13T05:32:47.474Z,88.97
2018-04-13T05:35:15.094Z,90.45
2018-04-13T05:37:42.714Z,91.69
2018-04-13T05:40:10.348Z,92.82
2018-04-13T05:42:38.011Z,93.52
2018-04-13T05:45:05.737Z,94.00
2018-04-13T05:47:33.394Z,94.09
2018-04-13T05:50:01.041Z,94.53
2018-04-13T05:52:28.865Z,94.62
2018-04-13T05:54:56.608Z,94.42
2018-04-13T05:57:24.348Z,93.87
2018-04-13T05:59:53.308Z,93.35
2018-04-13T06:02:21.099Z,92.76
2018-04-13T06:04:48.755Z,92.31
2018-04-13T06:07:17.579Z,91.96
2018-04-13T06:09:45.688Z,91.27
2018-04-13T06:12:13.621Z,90.95
2018-04-13T06:14:41.516Z,91.02
2018-04-13T06:17:10.204Z,90.80
2018-04-13T06:19:38.467Z,90.59
2018-04-13T06:22:06.787Z,90.44
2018-04-13T06:24:39.486Z,90.27
2018-04-13T06:27:26.486Z,90.42
2018-04-13T06:33:08.011Z,90.46
2018-04-13T06:35:35.769Z,90.35
2018-04-13T06:38:04.777Z,90.61
2018-04-13T06:40:32.584Z,90.61
2018-04-13T06:43:00.367Z,90.62
2018-04-13T06:48:04.434Z,90.67
2018-04-13T06:50:34.144Z,90.42
2018-04-13T06:53:01.791Z,90.18
2018-04-13T06:55:29.667Z,89.98
2018-04-13T06:57:57.586Z,89.77
2018-04-13T07:00:25.503Z,89.77
2018-04-13T07:02:57.017Z,89.87
2018-04-13T07:05:24.700Z,89.91
2018-04-13T07:07:52.335Z,90.17
2018-04-13T07:10:20.074Z,90.07
2018-04-13T07:12:47.870Z,89.77
2018-04-13T07:15:15.554Z,89.40
2018-04-13T07:17:43.263Z,89.09
2018-04-13T07:20:10.948Z,89.09
2018-04-13T07:22:38.548Z,89.50
2018-04-13T07:25:06.198Z,89.82
2018-04-13T07:27:33.810Z,90.46
2018-04-13T07:30:01.469Z,90.88
2018-04-13T07:32:29.076Z,91.26
2018-04-13T07:34:56.729Z,91.52
2018-04-13T07:37:24.364Z,91.95
2018-04-13T07:39:52.312Z,92.18
2018-04-13T07:42:19.748Z,91.92
2018-04-13T07:44:47.384Z,91.83
2018-04-13T07:47:15.063Z,91.86
2018-04-13T07:49:42.738Z,91.97
2018-04-13T07:52:10.430Z,91.97
2018-04-13T07:54:38.121Z,91.86
2018-04-13T07:57:05.895Z,91.47
2018-04-13T07:59:33.623Z,91.80
2018-04-13T08:02:01.398Z,92.10
2018-04-13T08:04:29.095Z,91.74
2018-04-13T08:06:56.891Z,91.63
2018-04-13T08:09:24.608Z,91.29
2018-04-13T08:11:52.305Z,91.10
2018-04-13T08:14:19.896Z,91.26
2018-04-13T08:16:47.662Z,90.98
2018-04-13T08:19:15.405Z,90.70
2018-04-13T08:21:43.064Z,90.59
2018-04-13T08:24:10.766Z,90.68
2018-04-13T08:26:38.597Z,90.59
2018-04-13T08:29:06.238Z,90.59
2018-04-13T08:31:34.737Z,90.70
2018-04-13T08:34:02.572Z,90.72
2018-04-13T08:36:30.172Z,91.38
2018-04-13T08:38:58.755Z,92.68
2018-04-13T08:41:26.685Z,92.99
2018-04-13T08:43:54.389Z,93.25
2018-04-13T08:46:22.017Z,93.59
2018-04-13T08:48:49.782Z,93.96
2018-04-13T08:51:17.400Z,94.62
2018-04-13T08:53:45.115Z,94.83
2018-04-13T08:56:12.733Z,95.02
2018-04-13T08:58:40.526Z,95.38
2018-04-13T09:01:08.428Z,95.33
2018-04-13T09:03:36.083Z,95.17
2018-04-13T09:06:03.687Z,94.90
2018-04-13T09:08:31.350Z,94.64
2018-04-13T09:10:58.971Z,94.48
2018-04-13T09:13:27.346Z,94.34
2018-04-13T09:15:55.006Z,94.49
2018-04-13T09:18:22.677Z,94.44
2018-04-13T09:20:50.351Z,94.17
2018-04-13T09:23:18.347Z,94.09
2018-04-13T09:25:45.956Z,94.06
2018-04-13T09:28:13.738Z,94.25
2018-04-13T09:30:41.384Z,94.20
2018-04-13T09:33:09.004Z,93.41
2018-04-13T09:35:36.655Z,93.12
2018-04-13T09:38:04.291Z,92.28
2018-04-13T09:40:32.041Z,91.58
2018-04-13T09:42:59.871Z,91.88
2018-04-13T09:45:27.560Z,92.42
2018-04-13T09:47:55.192Z,91.97
2018-04-13T09:50:22.874Z,90.89
2018-04-13T09:52:50.546Z,90.08
2018-04-13T09:55:18.212Z,89.97
2018-04-13T09:57:45.821Z,89.95
2018-04-13T10:24:48.181Z,85.88
2018-04-13T10:30:09.001Z,84.74
2018-04-13T10:32:41.027Z,83.28
2018-04-13T10:35:14.862Z,82.49
2018-04-13T10:37:48.891Z,82.71
2018-04-13T10:43:16.993Z,81.98
2018-04-13T10:45:59.688Z,81.25
2018-04-13T10:48:35.208Z,81.08
2018-04-13T10:51:21.067Z,80.25
2018-04-13T10:53:57.468Z,78.98
2018-04-13T10:56:28.093Z,78.44
2018-04-13T10:59:01.921Z,78.81
2018-04-13T11:01:33.575Z,78.61
2018-04-13T11:04:05.618Z,78.09
2018-04-13T11:06:40.652Z,78.34
2018-04-13T11:09:12.878Z,77.33
2018-04-13T11:11:47.858Z,76.20
2018-04-13T11:17:07.902Z,76.04
2018-04-13T11:19:53.662Z,76.19
2018-04-13T11:25:45.115Z,74.03
2018-04-13T11:28:16.154Z,74.15
2018-04-13T11:30:53.837Z,73.57
2018-04-13T11:36:26.508Z,73.69
2018-04-13T11:39:13.826Z,73.73
2018-04-13T11:41:55.566Z,73.06
2018-04-13T11:44:26.588Z,73.02
2018-04-13T11:47:01.079Z,73.24
2018-04-13T11:52:23.372Z,72.58
2018-04-13T11:57:35.542Z,72.72
2018-04-13T12:00:22.615Z,72.49
2018-04-13T12:03:05.013Z,72.80
2018-04-13T12:05:42.609Z,72.23
2018-04-13T12:08:17.147Z,72.27
2018-04-13T12:13:52.998Z,71.96
2018-04-13T12:16:29.671Z,71.35
2018-04-13T12:19:06.236Z,71.15
2018-04-13T12:21:55.824Z,70.20
2018-04-13T12:24:27.579Z,70.27
2018-04-13T12:26:56.353Z,71.08
2018-04-13T12:29:24.757Z,70.65
2018-04-13T12:32:08.509Z,70.60
2018-04-13T12:34:41.773Z,70.19
2018-04-13T12:37:18.239Z,70.27
2018-04-13T12:39:48.530Z,70.65
2018-04-13T12:42:18.801Z,71.28
2018-04-13T12:44:47.580Z,71.17
2018-04-13T12:47:18.118Z,70.59
2018-04-13T12:49:56.614Z,69.84
2018-04-13T12:52:28.282Z,70.45
2018-04-13T12:58:09.805Z,70.37
2018-04-13T13:00:46.358Z,70.54
2018-04-13T13:06:12.105Z,71.01
2018-04-13T13:12:03.341Z,69.36
2018-04-13T13:14:38.304Z,68.55
2018-04-13T13:17:06.214Z,68.41
2018-04-13T13:19:48.104Z,68.75
2018-04-13T13:22:21.148Z,67.59
2018-04-13T13:27:30.046Z,68.09
2018-04-13T13:35:52.588Z,68.81
2018-04-13T13:41:14.276Z,68.73
2018-04-13T13:43:47.041Z,68.89
2018-04-13T13:46:14.690Z,69.23
2018-04-13T13:48:42.535Z,68.50
2018-04-13T13:51:10.184Z,68.74
2018-04-13T13:53:37.901Z,69.52
2018-04-13T13:56:05.593Z,70.47
2018-04-13T13:58:33.314Z,71.10
2018-04-13T14:01:00.909Z,71.05
2018-04-13T14:03:28.600Z,71.13
2018-04-13T14:05:56.261Z,70.87
2018-04-13T14:08:24.025Z,71.29
2018-04-13T14:10:51.702Z,70.69
2018-04-13T14:13:19.386Z,70.74
2018-04-13T14:15:47.053Z,70.98
2018-04-13T14:18:14.804Z,71.18
2018-04-13T14:20:42.500Z,71.43
2018-04-13T14:23:10.146Z,71.50
2018-04-13T14:25:37.853Z,71.13
2018-04-13T14:28:05.570Z,71.28
2018-04-13T14:30:33.289Z,70.82
2018-04-13T14:33:01.009Z,70.39
2018-04-13T14:35:28.670Z,70.52
2018-04-13T14:37:56.306Z,70.61
2018-04-13T14:40:23.938Z,71.23
2018-04-13T14:42:51.598Z,71.75
2018-04-13T14:45:19.288Z,71.96
2018-04-13T14:47:46.946Z,72.23
2018-04-13T14:50:14.635Z,72.13
2018-04-13T14:52:42.293Z,72.24
2018-04-13T14:55:09.985Z,72.47
2018-04-13T14:57:37.773Z,72.45
2018-04-13T15:00:05.485Z,72.12
2018-04-13T15:02:33.149Z,72.07
2018-04-13T15:05:00.865Z,72.58
2018-04-13T15:07:28.630Z,72.15
2018-04-13T15:09:56.245Z,71.63
2018-04-13T15:12:23.953Z,71.92
2018-04-13T15:14:51.581Z,72.15
2018-04-13T15:17:19.330Z,72.07
2018-04-13T15:19:46.958Z,72.09
2018-04-13T15:22:14.635Z,72.26
2018-04-13T15:24:42.233Z,72.53
2018-04-13T15:27:10.061Z,72.71
2018-04-13T15:29:37.706Z,72.41
2018-04-13T15:32:05.427Z,72.70
2018-04-13T15:34:33.104Z,72.40
2018-04-13T15:37:00.957Z,72.54
2018-04-13T15:39:28.752Z,72.72
2018-04-13T15:41:56.374Z,72.88
2018-04-13T15:44:24.123Z,72.96
2018-04-13T15:46:51.825Z,72.66
2018-04-13T15:49:19.498Z,72.50
2018-04-13T15:51:47.116Z,72.65
2018-04-13T15:54:14.922Z,72.50
2018-04-13T15:56:42.678Z,73.01
2018-04-13T15:59:10.373Z,72.86
2018-04-13T16:01:38.157Z,72.56
2018-04-13T16:04:05.726Z,72.59
2018-04-13T16:06:33.331Z,72.69
2018-04-13T16:09:00.935Z,72.90
2018-04-13T16:11:28.645Z,73.60
2018-04-13T16:13:56.230Z,73.62
2018-04-13T16:16:23.885Z,74.18
2018-04-13T16:18:51.462Z,74.11
2018-04-13T16:21:19.132Z,74.00
2018-04-13T16:23:46.754Z,74.61
2018-04-13T16:26:14.405Z,74.04
2018-04-13T16:28:42.019Z,74.27
2018-04-13T16:31:10.456Z,74.16
2018-04-13T16:33:38.063Z,74.41
2018-04-13T16:36:05.727Z,74.50
2018-04-13T16:38:33.517Z,74.60
2018-04-13T16:41:01.161Z,74.76
2018-04-13T16:43:28.760Z,74.67
2018-04-13T16:45:56.386Z,74.41
2018-04-13T16:48:24.036Z,74.59
2018-04-13T16:50:51.660Z,74.78
2018-04-13T16:53:19.296Z,74.61
2018-04-13T16:55:46.922Z,74.67
2018-04-13T16:58:14.562Z,74.54
2018-04-13T17:00:42.162Z,74.65
2018-04-13T17:03:09.812Z,74.70
2018-04-13T17:05:37.566Z,74.85
2018-04-13T17:08:05.203Z,75.02
2018-04-13T17:10:32.828Z,75.14
2018-04-13T17:13:00.500Z,75.19
2018-04-13T17:15:28.110Z,75.20
2018-04-13T17:17:55.779Z,75.14
2018-04-13T17:20:23.372Z,75.33
2018-04-13T17:22:50.982Z,75.60
2018-04-13T17:25:18.631Z,75.65
2018-04-13T17:27:46.224Z,75.82
2018-04-13T17:30:13.869Z,75.95
2018-04-13T17:32:41.523Z,76.04
2018-04-13T17:35:09.186Z,76.18
2018-04-13T17:37:36.804Z,76.33
2018-04-13T17:40:04.469Z,76.32
2018-04-13T17:42:32.083Z,76.46
2018-04-13T17:44:59.746Z,76.48
2018-04-13T17:47:27.449Z,76.50
2018-04-13T17:49:55.102Z,76.99
2018-04-13T17:52:22.716Z,77.44
2018-04-13T17:54:50.369Z,77.19
2018-04-13T17:57:18.002Z,76.88
2018-04-13T17:59:45.679Z,76.64
2018-04-13T18:02:13.292Z,76.77
2018-04-13T18:04:40.983Z,76.80
2018-04-13T18:07:08.596Z,76.81
2018-04-13T18:09:36.286Z,77.43
2018-04-13T18:12:03.937Z,78.08
2018-04-13T18:14:31.614Z,78.91
2018-04-13T18:16:59.242Z,79.41
2018-04-13T18:19:26.874Z,79.82
2018-04-13T18:21:54.514Z,79.89
2018-04-13T18:24:22.139Z,79.85
2018-04-13T18:26:49.810Z,79.52
2018-04-13T18:29:17.411Z,79.08
2018-04-13T18:31:45.082Z,79.12
2018-04-13T18:34:12.773Z,79.13
2018-04-13T18:36:40.513Z,79.38
2018-04-13T18:39:08.170Z,79.79
2018-04-13T18:41:35.795Z,80.09
2018-04-13T18:44:03.406Z,80.56
2018-04-13T18:46:31.114Z,80.91
2018-04-13T18:48:58.746Z,81.17
2018-04-13T18:51:26.407Z,81.30
2018-04-13T18:53:54.059Z,81.35
2018-04-13T18:56:21.740Z,81.21
2018-04-13T18:58:49.399Z,81.06
2018-04-13T19:01:17.050Z,81.07
2018-04-13T19:03:44.676Z,81.00
2018-04-13T19:06:12.524Z,81.00
2018-04-13T19:08:40.267Z,81.05
2018-04-13T19:11:07.922Z,81.04
2018-04-13T19:13:35.598Z,80.99
2018-04-13T19:16:03.241Z,80.98
2018-04-13T19:18:30.921Z,80.90
2018-04-13T19:20:58.689Z,81.06
2018-04-13T19:23:26.334Z,81.11
2018-04-13T19:25:54.036Z,81.20
2018-04-13T19:28:21.800Z,81.19
2018-04-13T19:30:49.523Z,81.25
2018-04-13T19:33:17.287Z,81.34
2018-04-13T19:35:44.978Z,81.17
2018-04-13T19:38:12.736Z,81.01
2018-04-13T19:40:40.452Z,81.02
2018-04-13T19:43:08.159Z,81.11
2018-04-13T19:45:35.799Z,81.12
2018-04-13T19:48:03.503Z,81.19
2018-04-13T19:50:31.127Z,81.27
2018-04-13T19:52:58.971Z,81.36
2018-04-13T19:55:26.624Z,81.43
2018-04-13T19:57:54.380Z,81.40
2018-04-13T20:00:22.082Z,81.32
2018-04-13T20:02:49.845Z,81.33
2018-04-13T20:05:17.629Z,81.34
2018-04-13T20:07:45.325Z,81.47
2018-04-13T20:10:13.046Z,81.57
2018-04-13T20:12:40.696Z,81.71
2018-04-13T20:15:08.352Z,82.20
2018-04-13T20:17:36.502Z,81.81
2018-04-13T20:20:04.251Z,81.96
2018-04-13T20:22:31.988Z,81.67
2018-04-13T20:24:59.645Z,81.61
2018-04-13T20:27:27.412Z,81.60
2018-04-13T20:29:55.134Z,81.63
2018-04-13T20:32:22.931Z,82.00
2018-04-13T20:34:50.609Z,82.47
2018-04-13T20:37:18.357Z,82.32
2018-04-13T20:39:46.074Z,82.12
2018-04-13T20:42:13.789Z,81.89
2018-04-13T20:44:41.666Z,82.24
2018-04-13T20:47:09.304Z,83.81
2018-04-13T20:49:37.037Z,84.42
2018-04-13T20:52:04.800Z,84.98
2018-04-13T20:54:32.450Z,85.34
2018-04-13T20:57:00.128Z,85.58
2018-04-13T20:59:27.850Z,85.73
2018-04-13T21:01:55.549Z,85.57
2018-04-13T21:04:23.169Z,85.06
2018-04-13T21:06:51.174Z,83.97
2018-04-13T21:09:18.780Z,83.70
2018-04-13T21:11:46.474Z,83.94
2018-04-13T21:14:14.163Z,83.66
2018-04-13T21:16:41.880Z,83.99
2018-04-13T21:19:09.572Z,84.30
2018-04-13T21:21:38.229Z,85.11
2018-04-13T21:24:06.116Z,85.74
2018-04-13T21:26:33.799Z,85.98
2018-04-13T21:29:01.714Z,86.12
2018-04-13T21:31:29.533Z,86.17
2018-04-13T21:33:57.288Z,86.19
2018-04-13T21:36:25.151Z,86.33
2018-04-13T21:38:52.819Z,86.12
2018-04-13T21:41:20.469Z,86.03
2018-04-13T21:43:49.226Z,86.19
2018-04-13T21:46:16.902Z,86.47
2018-04-13T21:48:44.597Z,86.55
2018-04-13T21:51:12.215Z,86.71
2018-04-13T21:53:40.046Z,86.76
2018-04-13T21:56:07.848Z,86.87
2018-04-13T21:58:35.735Z,86.74
2018-04-13T22:01:03.378Z,86.85
2018-04-13T22:03:31.097Z,87.13
2018-04-13T22:05:58.746Z,87.49
2018-04-13T22:08:26.459Z,87.75
2018-04-13T22:10:54.105Z,88.04
2018-04-13T22:13:27.614Z,88.29
2018-04-13T22:15:55.241Z,88.65
2018-04-13T22:18:22.886Z,88.87
2018-04-13T22:20:50.526Z,88.79
2018-04-13T22:23:18.265Z,88.50
2018-04-13T22:25:45.919Z,88.27
2018-04-13T22:28:13.559Z,88.11
2018-04-13T22:30:41.220Z,88.13
2018-04-13T22:33:08.889Z,88.10
2018-04-13T22:35:36.550Z,88.05
2018-04-13T22:38:04.172Z,88.06
2018-04-13T22:40:31.898Z,87.98
2018-04-13T22:42:59.542Z,87.82
2018-04-13T22:45:27.172Z,87.83
2018-04-13T22:47:54.823Z,87.71
2018-04-13T22:50:22.537Z,87.57
2018-04-13T22:52:50.169Z,87.54
2018-04-13T22:55:17.829Z,87.62
2018-04-13T22:57:45.529Z,87.71
2018-04-13T23:00:13.380Z,87.93
2018-04-13T23:02:41.016Z,88.16
2018-04-13T23:05:08.644Z,88.29
2018-04-13T23:07:36.306Z,88.24
2018-04-13T23:10:04.072Z,88.22
2018-04-13T23:12:31.757Z,88.21
2018-04-13T23:14:59.388Z,88.33
2018-04-13T23:17:27.054Z,88.70
2018-04-13T23:19:54.801Z,88.79
2018-04-13T23:22:33.953Z,88.85
2018-04-13T23:25:01.638Z,89.14
2018-04-13T23:27:29.314Z,89.12
2018-04-13T23:29:56.908Z,89.04
2018-04-13T23:32:24.601Z,89.09
2018-04-13T23:34:52.200Z,88.94
2018-04-13T23:37:19.848Z,88.70
2018-04-13T23:39:47.449Z,88.19
2018-04-13T23:42:15.100Z,88.26
2018-04-13T23:44:42.713Z,88.49
2018-04-13T23:47:10.328Z,88.50
2018-04-13T23:49:37.959Z,88.61
2018-04-13T23:52:05.583Z,88.64
2018-04-13T23:54:33.275Z,89.31
2018-04-13T23:57:00.893Z,89.79
2018-04-13T23:59:28.560Z,90.06
